sensor_id;sensor_type;location;lat;lon;timestamp;P1;durP1;ratioP1;P2;durP2;ratioP2
24034;SDS011;12242;50.952;4.678;2022-09-13T00:01:03;3.42;;;1.63;;
24034;SDS011;12242;50.952;4.678;2022-09-13T00:03:31;3.55;;;1.45;;
24034;SDS011;12242;50.952;4.678;2022-09-13T00:06:06;4.57;;;1.95;;
24034;SDS011;12242;50.952;4.678;2022-09-13T00:08:44;3.88;;;1.70;;
24034;SDS011;12242;50.952;4.678;2022-09-13T00:11:14;4.72;;;1.80;;
24034;SDS011;12242;50.952;4.678;2022-09-13T00:13:43;5.82;;;1.85;;
24034;SDS011;12242;50.952;4.678;2022-09-13T00:16:12;5.60;;;1.40;;
24034;SDS011;12242;50.952;4.678;2022-09-13T00:18:40;4.30;;;1.90;;
24034;SDS011;12242;50.952;4.678;2022-09-13T00:21:09;3.33;;;1.67;;
24034;SDS011;12242;50.952;4.678;2022-09-13T00:23:45;3.92;;;1.80;;
24034;SDS011;12242;50.952;4.678;2022-09-13T00:26:23;3.90;;;1.65;;
24034;SDS011;12242;50.952;4.678;2022-09-13T00:28:52;4.93;;;1.73;;
24034;SDS011;12242;50.952;4.678;2022-09-13T00:31:22;2.92;;;1.60;;
24034;SDS011;12242;50.952;4.678;2022-09-13T00:33:52;3.85;;;1.52;;
24034;SDS011;12242;50.952;4.678;2022-09-13T00:36:19;3.60;;;1.73;;
24034;SDS011;12242;50.952;4.678;2022-09-13T00:38:47;3.72;;;1.63;;
24034;SDS011;12242;50.952;4.678;2022-09-13T00:41:17;3.70;;;1.27;;
24034;SDS011;12242;50.952;4.678;2022-09-13T00:43:53;2.85;;;1.42;;
24034;SDS011;12242;50.952;4.678;2022-09-13T00:49:11;4.47;;;1.90;;
24034;SDS011;12242;50.952;4.678;2022-09-13T00:51:42;3.10;;;1.73;;
24034;SDS011;12242;50.952;4.678;2022-09-13T00:54:15;3.95;;;1.73;;
24034;SDS011;12242;50.952;4.678;2022-09-13T00:56:45;3.85;;;1.75;;
24034;SDS011;12242;50.952;4.678;2022-09-13T00:59:29;3.50;;;1.60;;
24034;SDS011;12242;50.952;4.678;2022-09-13T01:02:06;3.45;;;1.65;;
24034;SDS011;12242;50.952;4.678;2022-09-13T01:04:35;2.97;;;1.33;;
24034;SDS011;12242;50.952;4.678;2022-09-13T01:07:03;3.85;;;1.58;;
24034;SDS011;12242;50.952;4.678;2022-09-13T01:09:34;3.88;;;2.08;;
24034;SDS011;12242;50.952;4.678;2022-09-13T01:12:09;3.22;;;1.65;;
24034;SDS011;12242;50.952;4.678;2022-09-13T01:14:44;3.65;;;1.60;;
24034;SDS011;12242;50.952;4.678;2022-09-13T01:17:15;3.42;;;1.70;;
24034;SDS011;12242;50.952;4.678;2022-09-13T01:19:42;5.00;;;1.83;;
24034;SDS011;12242;50.952;4.678;2022-09-13T01:28:23;3.60;;;1.60;;
24034;SDS011;12242;50.952;4.678;2022-09-13T01:34:06;3.88;;;1.80;;
24034;SDS011;12242;50.952;4.678;2022-09-13T01:48:14;3.10;;;1.42;;
24034;SDS011;12242;50.952;4.678;2022-09-13T01:51:03;4.63;;;1.58;;
24034;SDS011;12242;50.952;4.678;2022-09-13T01:56:29;4.85;;;1.65;;
24034;SDS011;12242;50.952;4.678;2022-09-13T01:59:02;4.07;;;1.50;;
24034;SDS011;12242;50.952;4.678;2022-09-13T02:01:39;3.67;;;1.67;;
24034;SDS011;12242;50.952;4.678;2022-09-13T02:04:20;2.80;;;1.48;;
24034;SDS011;12242;50.952;4.678;2022-09-13T02:07:10;3.13;;;1.60;;
24034;SDS011;12242;50.952;4.678;2022-09-13T02:09:47;3.80;;;1.38;;
24034;SDS011;12242;50.952;4.678;2022-09-13T02:12:19;3.08;;;1.45;;
24034;SDS011;12242;50.952;4.678;2022-09-13T02:15:08;3.15;;;1.58;;
24034;SDS011;12242;50.952;4.678;2022-09-13T02:17:44;5.10;;;1.73;;
24034;SDS011;12242;50.952;4.678;2022-09-13T02:20:20;4.38;;;1.90;;
24034;SDS011;12242;50.952;4.678;2022-09-13T02:22:55;6.13;;;1.60;;
24034;SDS011;12242;50.952;4.678;2022-09-13T02:25:27;2.97;;;1.50;;
24034;SDS011;12242;50.952;4.678;2022-09-13T02:28:02;3.83;;;1.88;;
24034;SDS011;12242;50.952;4.678;2022-09-13T02:30:33;3.72;;;1.50;;
24034;SDS011;12242;50.952;4.678;2022-09-13T02:33:12;4.65;;;1.45;;
24034;SDS011;12242;50.952;4.678;2022-09-13T02:35:46;3.88;;;1.13;;
24034;SDS011;12242;50.952;4.678;2022-09-13T02:38:21;4.70;;;1.67;;
24034;SDS011;12242;50.952;4.678;2022-09-13T02:40:59;5.05;;;1.50;;
24034;SDS011;12242;50.952;4.678;2022-09-13T02:43:38;2.15;;;1.20;;
24034;SDS011;12242;50.952;4.678;2022-09-13T02:46:28;3.17;;;1.55;;
24034;SDS011;12242;50.952;4.678;2022-09-13T02:54:37;3.88;;;1.75;;
24034;SDS011;12242;50.952;4.678;2022-09-13T02:57:13;7.72;;;2.08;;
24034;SDS011;12242;50.952;4.678;2022-09-13T02:59:47;3.75;;;1.73;;
24034;SDS011;12242;50.952;4.678;2022-09-13T03:02:15;3.90;;;1.50;;
24034;SDS011;12242;50.952;4.678;2022-09-13T03:04:46;6.35;;;2.00;;
24034;SDS011;12242;50.952;4.678;2022-09-13T03:07:16;4.43;;;1.77;;
24034;SDS011;12242;50.952;4.678;2022-09-13T03:09:48;4.13;;;1.83;;
24034;SDS011;12242;50.952;4.678;2022-09-13T03:15:34;4.43;;;1.60;;
24034;SDS011;12242;50.952;4.678;2022-09-13T03:29:43;2.90;;;1.50;;
24034;SDS011;12242;50.952;4.678;2022-09-13T03:32:35;2.78;;;1.15;;
24034;SDS011;12242;50.952;4.678;2022-09-13T03:38:15;3.55;;;1.70;;
24034;SDS011;12242;50.952;4.678;2022-09-13T03:40:59;4.57;;;1.52;;
24034;SDS011;12242;50.952;4.678;2022-09-13T03:43:30;3.13;;;1.40;;
24034;SDS011;12242;50.952;4.678;2022-09-13T03:46:06;3.47;;;1.70;;
24034;SDS011;12242;50.952;4.678;2022-09-13T03:48:36;4.43;;;1.80;;
24034;SDS011;12242;50.952;4.678;2022-09-13T03:51:08;3.65;;;1.50;;
24034;SDS011;12242;50.952;4.678;2022-09-13T03:53:38;3.80;;;1.85;;
24034;SDS011;12242;50.952;4.678;2022-09-13T03:56:12;3.35;;;1.38;;
24034;SDS011;12242;50.952;4.678;2022-09-13T03:58:40;4.97;;;1.50;;
24034;SDS011;12242;50.952;4.678;2022-09-13T04:01:07;4.57;;;1.65;;
24034;SDS011;12242;50.952;4.678;2022-09-13T04:03:36;4.35;;;1.55;;
24034;SDS011;12242;50.952;4.678;2022-09-13T04:06:04;2.95;;;1.60;;
24034;SDS011;12242;50.952;4.678;2022-09-13T04:08:34;3.50;;;1.50;;
24034;SDS011;12242;50.952;4.678;2022-09-13T04:11:01;4.80;;;1.48;;
24034;SDS011;12242;50.952;4.678;2022-09-13T04:13:31;3.63;;;1.48;;
24034;SDS011;12242;50.952;4.678;2022-09-13T04:15:59;4.18;;;1.50;;
24034;SDS011;12242;50.952;4.678;2022-09-13T04:18:30;4.00;;;1.52;;
24034;SDS011;12242;50.952;4.678;2022-09-13T04:21:00;6.38;;;1.50;;
24034;SDS011;12242;50.952;4.678;2022-09-13T04:23:31;3.85;;;1.40;;
24034;SDS011;12242;50.952;4.678;2022-09-13T04:26:02;3.10;;;1.65;;
24034;SDS011;12242;50.952;4.678;2022-09-13T04:28:30;3.38;;;1.60;;
24034;SDS011;12242;50.952;4.678;2022-09-13T04:31:00;5.70;;;1.60;;
24034;SDS011;12242;50.952;4.678;2022-09-13T04:33:29;2.95;;;1.63;;
24034;SDS011;12242;50.952;4.678;2022-09-13T04:35:57;4.45;;;1.83;;
24034;SDS011;12242;50.952;4.678;2022-09-13T04:38:25;4.95;;;1.77;;
24034;SDS011;12242;50.952;4.678;2022-09-13T04:40:53;3.15;;;1.70;;
24034;SDS011;12242;50.952;4.678;2022-09-13T04:43:22;2.40;;;1.40;;
24034;SDS011;12242;50.952;4.678;2022-09-13T04:45:50;3.00;;;1.50;;
24034;SDS011;12242;50.952;4.678;2022-09-13T04:48:19;3.25;;;1.80;;
24034;SDS011;12242;50.952;4.678;2022-09-13T04:50:46;3.38;;;1.65;;
24034;SDS011;12242;50.952;4.678;2022-09-13T04:53:14;6.70;;;1.90;;
24034;SDS011;12242;50.952;4.678;2022-09-13T04:55:42;5.22;;;1.58;;
24034;SDS011;12242;50.952;4.678;2022-09-13T04:58:09;5.18;;;1.60;;
24034;SDS011;12242;50.952;4.678;2022-09-13T05:00:41;2.38;;;1.33;;
24034;SDS011;12242;50.952;4.678;2022-09-13T05:03:08;4.47;;;1.70;;
24034;SDS011;12242;50.952;4.678;2022-09-13T05:05:37;2.63;;;1.50;;
24034;SDS011;12242;50.952;4.678;2022-09-13T05:08:05;4.40;;;1.30;;
24034;SDS011;12242;50.952;4.678;2022-09-13T05:10:32;3.70;;;1.58;;
24034;SDS011;12242;50.952;4.678;2022-09-13T05:12:59;7.25;;;1.70;;
24034;SDS011;12242;50.952;4.678;2022-09-13T05:15:27;2.90;;;1.63;;
24034;SDS011;12242;50.952;4.678;2022-09-13T05:17:55;6.15;;;1.50;;
24034;SDS011;12242;50.952;4.678;2022-09-13T05:20:25;3.42;;;1.30;;
24034;SDS011;12242;50.952;4.678;2022-09-13T05:22:54;3.65;;;1.50;;
24034;SDS011;12242;50.952;4.678;2022-09-13T05:25:24;4.75;;;1.73;;
24034;SDS011;12242;50.952;4.678;2022-09-13T05:27:52;2.97;;;1.55;;
24034;SDS011;12242;50.952;4.678;2022-09-13T05:30:21;7.20;;;1.70;;
24034;SDS011;12242;50.952;4.678;2022-09-13T05:32:48;3.53;;;1.40;;
24034;SDS011;12242;50.952;4.678;2022-09-13T05:35:17;6.13;;;1.52;;
24034;SDS011;12242;50.952;4.678;2022-09-13T05:37:44;4.03;;;1.83;;
24034;SDS011;12242;50.952;4.678;2022-09-13T05:40:12;4.85;;;1.83;;
24034;SDS011;12242;50.952;4.678;2022-09-13T05:42:40;3.58;;;1.70;;
24034;SDS011;12242;50.952;4.678;2022-09-13T05:45:07;3.42;;;1.80;;
24034;SDS011;12242;50.952;4.678;2022-09-13T05:47:35;3.83;;;1.70;;
24034;SDS011;12242;50.952;4.678;2022-09-13T05:50:02;3.17;;;1.63;;
24034;SDS011;12242;50.952;4.678;2022-09-13T05:52:49;2.85;;;1.52;;
24034;SDS011;12242;50.952;4.678;2022-09-13T05:55:18;5.43;;;2.08;;
24034;SDS011;12242;50.952;4.678;2022-09-13T05:57:47;3.53;;;1.60;;
24034;SDS011;12242;50.952;4.678;2022-09-13T06:00:15;3.38;;;1.52;;
24034;SDS011;12242;50.952;4.678;2022-09-13T06:02:45;3.58;;;1.60;;
24034;SDS011;12242;50.952;4.678;2022-09-13T06:05:17;5.25;;;1.70;;
24034;SDS011;12242;50.952;4.678;2022-09-13T06:07:44;3.65;;;1.58;;
24034;SDS011;12242;50.952;4.678;2022-09-13T06:10:17;2.97;;;1.70;;
24034;SDS011;12242;50.952;4.678;2022-09-13T06:12:46;4.00;;;1.60;;
24034;SDS011;12242;50.952;4.678;2022-09-13T06:15:13;2.85;;;1.25;;
24034;SDS011;12242;50.952;4.678;2022-09-13T06:17:41;3.38;;;1.63;;
24034;SDS011;12242;50.952;4.678;2022-09-13T06:20:10;3.45;;;1.77;;
24034;SDS011;12242;50.952;4.678;2022-09-13T06:22:38;4.10;;;1.75;;
24034;SDS011;12242;50.952;4.678;2022-09-13T06:25:09;4.70;;;1.80;;
24034;SDS011;12242;50.952;4.678;2022-09-13T06:27:39;4.07;;;1.75;;
24034;SDS011;12242;50.952;4.678;2022-09-13T06:30:06;4.85;;;1.92;;
24034;SDS011;12242;50.952;4.678;2022-09-13T06:32:34;4.88;;;2.03;;
24034;SDS011;12242;50.952;4.678;2022-09-13T06:35:01;2.70;;;1.60;;
24034;SDS011;12242;50.952;4.678;2022-09-13T06:37:29;4.57;;;1.80;;
24034;SDS011;12242;50.952;4.678;2022-09-13T06:39:56;5.13;;;2.00;;
24034;SDS011;12242;50.952;4.678;2022-09-13T06:42:26;3.40;;;1.75;;
24034;SDS011;12242;50.952;4.678;2022-09-13T06:44:56;3.83;;;1.63;;
24034;SDS011;12242;50.952;4.678;2022-09-13T06:47:23;4.80;;;2.10;;
24034;SDS011;12242;50.952;4.678;2022-09-13T06:49:54;8.52;;;2.10;;
24034;SDS011;12242;50.952;4.678;2022-09-13T06:52:23;7.40;;;1.90;;
24034;SDS011;12242;50.952;4.678;2022-09-13T06:54:50;4.53;;;2.00;;
24034;SDS011;12242;50.952;4.678;2022-09-13T06:57:20;4.95;;;1.88;;
24034;SDS011;12242;50.952;4.678;2022-09-13T06:59:48;5.40;;;2.25;;
24034;SDS011;12242;50.952;4.678;2022-09-13T07:02:15;7.30;;;2.45;;
24034;SDS011;12242;50.952;4.678;2022-09-13T07:04:48;4.88;;;2.10;;
24034;SDS011;12242;50.952;4.678;2022-09-13T07:07:15;5.15;;;2.60;;
24034;SDS011;12242;50.952;4.678;2022-09-13T07:09:43;8.00;;;2.70;;
24034;SDS011;12242;50.952;4.678;2022-09-13T07:12:10;8.93;;;2.80;;
24034;SDS011;12242;50.952;4.678;2022-09-13T07:14:41;5.70;;;2.67;;
24034;SDS011;12242;50.952;4.678;2022-09-13T07:17:08;6.40;;;3.05;;
24034;SDS011;12242;50.952;4.678;2022-09-13T07:19:36;6.18;;;2.72;;
24034;SDS011;12242;50.952;4.678;2022-09-13T07:22:05;5.60;;;2.25;;
24034;SDS011;12242;50.952;4.678;2022-09-13T07:24:33;6.40;;;2.05;;
24034;SDS011;12242;50.952;4.678;2022-09-13T07:27:05;4.72;;;2.00;;
24034;SDS011;12242;50.952;4.678;2022-09-13T07:29:33;7.22;;;2.10;;
24034;SDS011;12242;50.952;4.678;2022-09-13T07:32:00;5.30;;;2.15;;
24034;SDS011;12242;50.952;4.678;2022-09-13T07:34:28;4.63;;;1.98;;
24034;SDS011;12242;50.952;4.678;2022-09-13T07:36:59;4.38;;;2.05;;
24034;SDS011;12242;50.952;4.678;2022-09-13T07:39:27;5.82;;;2.40;;
24034;SDS011;12242;50.952;4.678;2022-09-13T07:41:55;4.97;;;2.15;;
24034;SDS011;12242;50.952;4.678;2022-09-13T07:44:24;4.70;;;2.25;;
24034;SDS011;12242;50.952;4.678;2022-09-13T07:46:51;9.73;;;2.22;;
24034;SDS011;12242;50.952;4.678;2022-09-13T07:49:21;5.05;;;1.98;;
24034;SDS011;12242;50.952;4.678;2022-09-13T07:51:53;5.28;;;2.03;;
24034;SDS011;12242;50.952;4.678;2022-09-13T07:54:21;4.32;;;1.80;;
24034;SDS011;12242;50.952;4.678;2022-09-13T07:56:50;5.82;;;2.00;;
24034;SDS011;12242;50.952;4.678;2022-09-13T07:59:18;5.93;;;2.00;;
24034;SDS011;12242;50.952;4.678;2022-09-13T08:01:49;4.85;;;1.85;;
24034;SDS011;12242;50.952;4.678;2022-09-13T08:04:19;4.10;;;1.90;;
24034;SDS011;12242;50.952;4.678;2022-09-13T08:06:52;4.57;;;2.00;;
24034;SDS011;12242;50.952;4.678;2022-09-13T08:09:20;7.80;;;2.03;;
24034;SDS011;12242;50.952;4.678;2022-09-13T08:11:52;5.60;;;2.20;;
24034;SDS011;12242;50.952;4.678;2022-09-13T08:14:21;6.18;;;1.63;;
24034;SDS011;12242;50.952;4.678;2022-09-13T08:16:49;6.85;;;1.63;;
24034;SDS011;12242;50.952;4.678;2022-09-13T08:19:20;8.82;;;2.15;;
24034;SDS011;12242;50.952;4.678;2022-09-13T08:21:49;7.82;;;2.10;;
24034;SDS011;12242;50.952;4.678;2022-09-13T08:24:20;7.05;;;1.98;;
24034;SDS011;12242;50.952;4.678;2022-09-13T08:26:47;6.25;;;2.30;;
24034;SDS011;12242;50.952;4.678;2022-09-13T08:29:17;4.53;;;2.20;;
24034;SDS011;12242;50.952;4.678;2022-09-13T08:31:45;7.00;;;2.08;;
24034;SDS011;12242;50.952;4.678;2022-09-13T08:34:13;9.40;;;2.42;;
24034;SDS011;12242;50.952;4.678;2022-09-13T08:36:41;7.10;;;2.60;;
24034;SDS011;12242;50.952;4.678;2022-09-13T08:39:10;5.00;;;2.58;;
24034;SDS011;12242;50.952;4.678;2022-09-13T08:47:06;5.32;;;2.72;;
24034;SDS011;12242;50.952;4.678;2022-09-13T08:49:43;5.22;;;2.72;;
24034;SDS011;12242;50.952;4.678;2022-09-13T08:55:02;8.45;;;2.50;;
24034;SDS011;12242;50.952;4.678;2022-09-13T08:57:47;6.13;;;2.65;;
24034;SDS011;12242;50.952;4.678;2022-09-13T09:00:20;6.93;;;3.15;;
24034;SDS011;12242;50.952;4.678;2022-09-13T09:03:01;7.38;;;3.10;;
24034;SDS011;12242;50.952;4.678;2022-09-13T09:06:11;5.80;;;2.83;;
24034;SDS011;12242;50.952;4.678;2022-09-13T09:08:45;6.30;;;3.08;;
24034;SDS011;12242;50.952;4.678;2022-09-13T09:11:20;6.38;;;3.28;;
24034;SDS011;12242;50.952;4.678;2022-09-13T09:19:21;8.82;;;3.15;;
24034;SDS011;12242;50.952;4.678;2022-09-13T09:21:52;7.07;;;2.90;;
24034;SDS011;12242;50.952;4.678;2022-09-13T09:24:23;5.82;;;2.67;;
24034;SDS011;12242;50.952;4.678;2022-09-13T09:26:51;8.32;;;2.70;;
24034;SDS011;12242;50.952;4.678;2022-09-13T09:29:23;6.30;;;2.55;;
24034;SDS011;12242;50.952;4.678;2022-09-13T09:37:22;7.68;;;2.40;;
24034;SDS011;12242;50.952;4.678;2022-09-13T09:39:52;4.82;;;2.47;;
24034;SDS011;12242;50.952;4.678;2022-09-13T09:42:23;7.72;;;2.83;;
24034;SDS011;12242;50.952;4.678;2022-09-13T09:44:55;5.78;;;2.80;;
24034;SDS011;12242;50.952;4.678;2022-09-13T09:47:28;5.13;;;2.30;;
24034;SDS011;12242;50.952;4.678;2022-09-13T09:50:11;6.30;;;2.42;;
24034;SDS011;12242;50.952;4.678;2022-09-13T09:52:43;6.18;;;2.53;;
24034;SDS011;12242;50.952;4.678;2022-09-13T09:55:24;6.32;;;2.47;;
24034;SDS011;12242;50.952;4.678;2022-09-13T09:58:06;6.28;;;2.58;;
24034;SDS011;12242;50.952;4.678;2022-09-13T10:00:54;7.72;;;2.53;;
24034;SDS011;12242;50.952;4.678;2022-09-13T10:03:24;5.90;;;2.30;;
24034;SDS011;12242;50.952;4.678;2022-09-13T10:06:13;3.70;;;2.00;;
24034;SDS011;12242;50.952;4.678;2022-09-13T10:08:55;6.10;;;2.30;;
24034;SDS011;12242;50.952;4.678;2022-09-13T10:11:39;4.65;;;2.20;;
24034;SDS011;12242;50.952;4.678;2022-09-13T10:19:52;5.78;;;2.17;;
24034;SDS011;12242;50.952;4.678;2022-09-13T10:22:23;3.92;;;1.77;;
24034;SDS011;12242;50.952;4.678;2022-09-13T10:24:51;4.05;;;2.17;;
24034;SDS011;12242;50.952;4.678;2022-09-13T10:27:27;4.45;;;2.22;;
24034;SDS011;12242;50.952;4.678;2022-09-13T10:30:28;8.85;;;2.28;;
24034;SDS011;12242;50.952;4.678;2022-09-13T10:33:02;3.42;;;1.98;;
24034;SDS011;12242;50.952;4.678;2022-09-13T10:35:30;3.85;;;2.03;;
24034;SDS011;12242;50.952;4.678;2022-09-13T10:37:59;4.50;;;2.20;;
24034;SDS011;12242;50.952;4.678;2022-09-13T10:40:30;5.40;;;2.20;;
24034;SDS011;12242;50.952;4.678;2022-09-13T10:43:05;4.40;;;2.22;;
24034;SDS011;12242;50.952;4.678;2022-09-13T10:45:41;4.28;;;2.00;;
24034;SDS011;12242;50.952;4.678;2022-09-13T10:48:12;4.95;;;2.28;;
24034;SDS011;12242;50.952;4.678;2022-09-13T10:53:48;4.63;;;2.38;;
24034;SDS011;12242;50.952;4.678;2022-09-13T10:56:35;5.05;;;2.33;;
24034;SDS011;12242;50.952;4.678;2022-09-13T10:59:21;4.68;;;2.80;;
24034;SDS011;12242;50.952;4.678;2022-09-13T11:16:59;4.05;;;2.33;;
24034;SDS011;12242;50.952;4.678;2022-09-13T11:20:02;4.75;;;2.30;;
24034;SDS011;12242;50.952;4.678;2022-09-13T11:22:50;7.75;;;2.67;;
24034;SDS011;12242;50.952;4.678;2022-09-13T11:44:40;5.85;;;2.30;;
24034;SDS011;12242;50.952;4.678;2022-09-13T11:50:14;4.40;;;2.30;;
24034;SDS011;12242;50.952;4.678;2022-09-13T11:56:01;3.80;;;1.92;;
24034;SDS011;12242;50.952;4.678;2022-09-13T11:58:45;3.83;;;1.83;;
24034;SDS011;12242;50.952;4.678;2022-09-13T12:01:48;5.60;;;1.80;;
24034;SDS011;12242;50.952;4.678;2022-09-13T12:04:22;2.78;;;1.50;;
24034;SDS011;12242;50.952;4.678;2022-09-13T12:07:00;5.28;;;1.80;;
24034;SDS011;12242;50.952;4.678;2022-09-13T12:09:34;2.53;;;1.52;;
24034;SDS011;12242;50.952;4.678;2022-09-13T12:12:27;2.88;;;1.58;;
24034;SDS011;12242;50.952;4.678;2022-09-13T12:15:00;6.95;;;1.70;;
24034;SDS011;12242;50.952;4.678;2022-09-13T12:17:53;3.28;;;1.88;;
24034;SDS011;12242;50.952;4.678;2022-09-13T12:26:06;4.18;;;1.30;;
24034;SDS011;12242;50.952;4.678;2022-09-13T12:31:12;2.40;;;1.20;;
24034;SDS011;12242;50.952;4.678;2022-09-13T12:33:50;4.38;;;1.40;;
24034;SDS011;12242;50.952;4.678;2022-09-13T12:44:43;3.50;;;1.65;;
24034;SDS011;12242;50.952;4.678;2022-09-13T12:53:16;2.97;;;1.55;;
24034;SDS011;12242;50.952;4.678;2022-09-13T13:01:43;5.07;;;1.83;;
24034;SDS011;12242;50.952;4.678;2022-09-13T13:04:14;3.05;;;1.42;;
24034;SDS011;12242;50.952;4.678;2022-09-13T13:06:53;3.70;;;1.50;;
24034;SDS011;12242;50.952;4.678;2022-09-13T13:09:53;5.03;;;1.65;;
24034;SDS011;12242;50.952;4.678;2022-09-13T13:14:52;5.50;;;1.80;;
24034;SDS011;12242;50.952;4.678;2022-09-13T13:17:42;4.30;;;1.80;;
24034;SDS011;12242;50.952;4.678;2022-09-13T13:23:28;3.85;;;1.60;;
24034;SDS011;12242;50.952;4.678;2022-09-13T13:26:42;3.75;;;1.85;;
24034;SDS011;12242;50.952;4.678;2022-09-13T13:39:37;4.47;;;1.70;;
24034;SDS011;12242;50.952;4.678;2022-09-13T13:42:13;3.72;;;1.70;;
24034;SDS011;12242;50.952;4.678;2022-09-13T13:44:56;5.72;;;1.98;;
24034;SDS011;12242;50.952;4.678;2022-09-13T13:52:38;6.38;;;2.50;;
24034;SDS011;12242;50.952;4.678;2022-09-13T13:55:28;5.93;;;2.33;;
24034;SDS011;12242;50.952;4.678;2022-09-13T13:58:03;5.20;;;2.33;;
24034;SDS011;12242;50.952;4.678;2022-09-13T14:00:55;5.93;;;2.65;;
24034;SDS011;12242;50.952;4.678;2022-09-13T14:08:54;5.20;;;2.80;;
24034;SDS011;12242;50.952;4.678;2022-09-13T14:19:57;4.93;;;2.28;;
24034;SDS011;12242;50.952;4.678;2022-09-13T14:22:29;5.07;;;2.35;;
24034;SDS011;12242;50.952;4.678;2022-09-13T14:24:57;6.15;;;2.63;;
24034;SDS011;12242;50.952;4.678;2022-09-13T14:27:39;5.65;;;2.50;;
24034;SDS011;12242;50.952;4.678;2022-09-13T14:30:24;5.18;;;2.40;;
24034;SDS011;12242;50.952;4.678;2022-09-13T14:32:56;5.97;;;2.30;;
24034;SDS011;12242;50.952;4.678;2022-09-13T14:35:28;4.40;;;1.98;;
24034;SDS011;12242;50.952;4.678;2022-09-13T14:38:20;7.18;;;2.55;;
24034;SDS011;12242;50.952;4.678;2022-09-13T14:40:52;5.32;;;2.45;;
24034;SDS011;12242;50.952;4.678;2022-09-13T14:43:27;5.53;;;2.42;;
24034;SDS011;12242;50.952;4.678;2022-09-13T14:48:47;5.28;;;2.75;;
24034;SDS011;12242;50.952;4.678;2022-09-13T14:51:23;5.22;;;2.70;;
24034;SDS011;12242;50.952;4.678;2022-09-13T14:54:00;5.38;;;2.33;;
24034;SDS011;12242;50.952;4.678;2022-09-13T14:56:52;4.30;;;2.30;;
24034;SDS011;12242;50.952;4.678;2022-09-13T14:59:25;4.30;;;2.45;;
24034;SDS011;12242;50.952;4.678;2022-09-13T15:01:58;5.40;;;2.30;;
24034;SDS011;12242;50.952;4.678;2022-09-13T15:04:35;5.60;;;2.20;;
24034;SDS011;12242;50.952;4.678;2022-09-13T15:07:17;4.38;;;2.03;;
24034;SDS011;12242;50.952;4.678;2022-09-13T15:10:07;4.68;;;2.05;;
24034;SDS011;12242;50.952;4.678;2022-09-13T15:15:32;6.07;;;2.20;;
24034;SDS011;12242;50.952;4.678;2022-09-13T15:21:15;4.80;;;2.35;;
24034;SDS011;12242;50.952;4.678;2022-09-13T15:23:27;7.40;;;2.50;;
24034;SDS011;12242;50.952;4.678;2022-09-13T15:28:54;4.80;;;2.88;;
24034;SDS011;12242;50.952;4.678;2022-09-13T15:31:32;6.35;;;3.30;;
24034;SDS011;12242;50.952;4.678;2022-09-13T15:36:47;6.05;;;3.20;;
24034;SDS011;12242;50.952;4.678;2022-09-13T15:39:27;5.78;;;3.50;;
24034;SDS011;12242;50.952;4.678;2022-09-13T15:41:56;6.00;;;3.50;;
24034;SDS011;12242;50.952;4.678;2022-09-13T15:44:26;6.82;;;3.72;;
24034;SDS011;12242;50.952;4.678;2022-09-13T15:46:56;8.07;;;3.75;;
24034;SDS011;12242;50.952;4.678;2022-09-13T15:49:28;6.43;;;3.43;;
24034;SDS011;12242;50.952;4.678;2022-09-13T15:51:58;8.02;;;4.03;;
24034;SDS011;12242;50.952;4.678;2022-09-13T15:54:31;5.65;;;3.42;;
24034;SDS011;12242;50.952;4.678;2022-09-13T15:57:12;6.35;;;3.15;;
24034;SDS011;12242;50.952;4.678;2022-09-13T15:59:44;6.13;;;3.55;;
24034;SDS011;12242;50.952;4.678;2022-09-13T16:02:18;6.72;;;3.35;;
24034;SDS011;12242;50.952;4.678;2022-09-13T16:04:49;8.68;;;3.80;;
24034;SDS011;12242;50.952;4.678;2022-09-13T16:07:19;9.43;;;3.67;;
24034;SDS011;12242;50.952;4.678;2022-09-13T16:09:47;6.15;;;3.33;;
24034;SDS011;12242;50.952;4.678;2022-09-13T16:12:16;6.53;;;4.05;;
24034;SDS011;12242;50.952;4.678;2022-09-13T16:14:44;9.52;;;3.90;;
24034;SDS011;12242;50.952;4.678;2022-09-13T16:17:20;7.85;;;4.43;;
24034;SDS011;12242;50.952;4.678;2022-09-13T16:19:49;8.68;;;4.50;;
24034;SDS011;12242;50.952;4.678;2022-09-13T16:22:17;8.63;;;4.60;;
24034;SDS011;12242;50.952;4.678;2022-09-13T16:24:46;8.82;;;4.35;;
24034;SDS011;12242;50.952;4.678;2022-09-13T16:27:15;7.80;;;4.43;;
24034;SDS011;12242;50.952;4.678;2022-09-13T16:29:44;7.32;;;4.45;;
24034;SDS011;12242;50.952;4.678;2022-09-13T16:32:11;8.63;;;4.90;;
24034;SDS011;12242;50.952;4.678;2022-09-13T16:34:39;10.65;;;5.30;;
24034;SDS011;12242;50.952;4.678;2022-09-13T16:37:07;10.80;;;5.22;;
24034;SDS011;12242;50.952;4.678;2022-09-13T16:39:42;8.57;;;5.10;;
24034;SDS011;12242;50.952;4.678;2022-09-13T16:42:13;10.88;;;5.78;;
24034;SDS011;12242;50.952;4.678;2022-09-13T16:44:43;9.77;;;5.50;;
24034;SDS011;12242;50.952;4.678;2022-09-13T16:47:12;9.38;;;5.32;;
24034;SDS011;12242;50.952;4.678;2022-09-13T16:49:40;8.20;;;5.00;;
24034;SDS011;12242;50.952;4.678;2022-09-13T16:52:08;11.85;;;5.95;;
24034;SDS011;12242;50.952;4.678;2022-09-13T16:54:35;12.13;;;7.03;;
24034;SDS011;12242;50.952;4.678;2022-09-13T16:57:03;12.25;;;7.03;;
24034;SDS011;12242;50.952;4.678;2022-09-13T16:59:36;12.77;;;7.22;;
24034;SDS011;12242;50.952;4.678;2022-09-13T17:02:05;16.15;;;7.05;;
24034;SDS011;12242;50.952;4.678;2022-09-13T17:04:35;15.25;;;6.70;;
24034;SDS011;12242;50.952;4.678;2022-09-13T17:07:02;10.70;;;6.78;;
24034;SDS011;12242;50.952;4.678;2022-09-13T17:09:32;14.65;;;7.47;;
24034;SDS011;12242;50.952;4.678;2022-09-13T17:12:00;13.30;;;7.57;;
24034;SDS011;12242;50.952;4.678;2022-09-13T17:14:28;14.18;;;7.50;;
24034;SDS011;12242;50.952;4.678;2022-09-13T17:16:59;12.48;;;6.78;;
24034;SDS011;12242;50.952;4.678;2022-09-13T17:19:29;13.77;;;7.43;;
24034;SDS011;12242;50.952;4.678;2022-09-13T17:21:59;12.52;;;7.53;;
24034;SDS011;12242;50.952;4.678;2022-09-13T17:24:28;14.05;;;7.65;;
24034;SDS011;12242;50.952;4.678;2022-09-13T17:27:01;12.85;;;7.40;;
24034;SDS011;12242;50.952;4.678;2022-09-13T17:29:30;13.32;;;7.07;;
24034;SDS011;12242;50.952;4.678;2022-09-13T17:32:00;8.55;;;5.50;;
24034;SDS011;12242;50.952;4.678;2022-09-13T17:34:29;9.85;;;4.88;;
24034;SDS011;12242;50.952;4.678;2022-09-13T17:36:58;11.75;;;4.75;;
24034;SDS011;12242;50.952;4.678;2022-09-13T17:39:25;8.95;;;4.68;;
24034;SDS011;12242;50.952;4.678;2022-09-13T17:41:55;10.90;;;4.63;;
24034;SDS011;12242;50.952;4.678;2022-09-13T17:44:23;10.05;;;4.53;;
24034;SDS011;12242;50.952;4.678;2022-09-13T17:46:51;7.97;;;4.43;;
24034;SDS011;12242;50.952;4.678;2022-09-13T17:49:18;13.07;;;4.45;;
24034;SDS011;12242;50.952;4.678;2022-09-13T17:51:48;8.63;;;4.53;;
24034;SDS011;12242;50.952;4.678;2022-09-13T17:54:16;7.93;;;3.90;;
24034;SDS011;12242;50.952;4.678;2022-09-13T17:56:43;7.40;;;4.00;;
24034;SDS011;12242;50.952;4.678;2022-09-13T17:59:17;7.63;;;4.07;;
24034;SDS011;12242;50.952;4.678;2022-09-13T18:01:50;7.32;;;4.22;;
24034;SDS011;12242;50.952;4.678;2022-09-13T18:04:20;8.57;;;4.18;;
24034;SDS011;12242;50.952;4.678;2022-09-13T18:06:51;6.93;;;3.88;;
24034;SDS011;12242;50.952;4.678;2022-09-13T18:09:21;7.15;;;4.20;;
24034;SDS011;12242;50.952;4.678;2022-09-13T18:11:51;6.88;;;3.70;;
24034;SDS011;12242;50.952;4.678;2022-09-13T18:14:22;9.38;;;3.97;;
24034;SDS011;12242;50.952;4.678;2022-09-13T18:16:53;7.18;;;4.00;;
24034;SDS011;12242;50.952;4.678;2022-09-13T18:19:23;6.53;;;3.60;;
24034;SDS011;12242;50.952;4.678;2022-09-13T18:22:11;8.60;;;4.13;;
24034;SDS011;12242;50.952;4.678;2022-09-13T18:24:38;6.78;;;4.22;;
24034;SDS011;12242;50.952;4.678;2022-09-13T18:27:06;7.10;;;3.85;;
24034;SDS011;12242;50.952;4.678;2022-09-13T18:29:38;9.20;;;4.32;;
24034;SDS011;12242;50.952;4.678;2022-09-13T18:32:08;6.05;;;4.20;;
24034;SDS011;12242;50.952;4.678;2022-09-13T18:34:37;7.78;;;4.10;;
24034;SDS011;12242;50.952;4.678;2022-09-13T18:37:10;6.43;;;3.80;;